createdAt,value
2018-12-05T00:01:39.848Z,7.73
2018-12-05T00:04:09.897Z,6.67
2018-12-05T00:06:39.660Z,8.33
2018-12-05T00:09:09.726Z,7.10
2018-12-05T00:11:42.229Z,7.30
2018-12-05T00:14:12.036Z,6.90
2018-12-05T00:16:41.877Z,6.07
2018-12-05T00:19:11.636Z,5.33
2018-12-05T00:21:42.049Z,7.00
2018-12-05T00:24:12.181Z,5.80
2018-12-05T00:26:41.948Z,7.23
2018-12-05T00:29:11.608Z,5.10
2018-12-05T00:31:41.568Z,5.37
2018-12-05T00:34:11.433Z,5.13
2018-12-05T00:36:41.401Z,7.47
2018-12-05T00:39:11.202Z,5.23
2018-12-05T00:41:41.172Z,5.40
2018-12-05T00:44:10.988Z,5.03
2018-12-05T00:46:40.789Z,8.20
2018-12-05T00:49:10.857Z,7.60
2018-12-05T00:51:40.577Z,7.27
2018-12-05T00:54:10.344Z,11.20
2018-12-05T00:56:40.254Z,6.40
2018-12-05T00:59:10.064Z,7.90
2018-12-05T01:01:40.085Z,9.30
2018-12-05T01:04:09.948Z,14.40
2018-12-05T01:06:39.912Z,7.13
2018-12-05T01:09:12.865Z,6.33
2018-12-05T01:11:42.750Z,9.57
2018-12-05T01:14:12.656Z,5.90
2018-12-05T01:16:42.419Z,7.00
2018-12-05T01:19:12.982Z,6.00
2018-12-05T01:21:42.740Z,8.90
2018-12-05T01:24:12.593Z,7.03
2018-12-05T01:26:42.508Z,7.80
2018-12-05T01:29:12.280Z,7.00
2018-12-05T01:31:42.200Z,8.60
2018-12-05T01:34:11.793Z,7.20
2018-12-05T01:36:41.959Z,6.90
2018-12-05T01:39:11.520Z,9.83
2018-12-05T01:41:41.362Z,6.20
2018-12-05T01:44:11.292Z,5.97
2018-12-05T01:46:40.956Z,8.17
2018-12-05T01:49:10.808Z,7.07
2018-12-05T01:51:40.652Z,8.43
2018-12-05T01:54:11.053Z,6.23
2018-12-05T01:56:40.880Z,6.10
2018-12-05T01:59:10.833Z,7.27
2018-12-05T02:01:40.593Z,7.43
2018-12-05T02:04:10.624Z,7.67
2018-12-05T02:06:40.376Z,8.23
2018-12-05T02:09:10.445Z,6.90
2018-12-05T02:11:42.763Z,10.20
2018-12-05T02:14:12.487Z,6.80
2018-12-05T02:16:42.436Z,6.67
2018-12-05T02:19:12.208Z,6.83
2018-12-05T02:21:42.067Z,9.13
2018-12-05T02:24:11.828Z,11.13
2018-12-05T02:26:41.780Z,7.93
2018-12-05T02:29:11.508Z,6.10
2018-12-05T02:31:41.970Z,7.60
2018-12-05T02:34:12.001Z,5.27
2018-12-05T02:36:41.712Z,6.33
2018-12-05T02:39:11.467Z,6.70
2018-12-05T02:41:41.325Z,6.57
2018-12-05T02:44:11.125Z,7.50
2018-12-05T02:46:40.806Z,7.27
2018-12-05T02:49:10.569Z,6.33
2018-12-05T02:51:40.424Z,7.20
2018-12-05T02:54:10.309Z,6.70
2018-12-05T02:56:40.256Z,6.70
2018-12-05T02:59:10.020Z,6.00
2018-12-05T03:01:39.997Z,7.87
2018-12-05T03:04:09.753Z,11.53
2018-12-05T03:06:39.980Z,7.63
2018-12-05T03:09:09.800Z,5.67
2018-12-05T03:11:39.629Z,7.27
2018-12-05T03:14:09.457Z,8.13
2018-12-05T03:16:39.468Z,7.07
2018-12-05T03:19:09.276Z,7.83
2018-12-05T03:21:39.092Z,7.17
2018-12-05T03:24:08.906Z,7.07
2018-12-05T03:26:39.485Z,6.63
2018-12-05T03:29:10.372Z,8.00
2018-12-05T03:31:40.187Z,11.40
2018-12-05T03:34:10.333Z,6.87
2018-12-05T03:36:40.304Z,7.70
2018-12-05T03:39:10.436Z,8.33
2018-12-05T03:41:40.469Z,6.47
2018-12-05T03:44:10.021Z,8.07
2018-12-05T03:46:40.082Z,7.30
2018-12-05T03:49:09.857Z,5.60
2018-12-05T03:51:39.796Z,7.40
2018-12-05T03:54:09.565Z,5.47
2018-12-05T03:56:39.417Z,10.20
2018-12-05T03:59:09.639Z,7.13
2018-12-05T04:01:39.568Z,6.90
2018-12-05T04:04:09.476Z,7.13
2018-12-05T04:06:39.399Z,9.20
2018-12-05T04:09:09.705Z,7.20
2018-12-05T04:11:40.120Z,9.67
2018-12-05T04:14:10.008Z,8.07
2018-12-05T04:16:39.779Z,9.63
2018-12-05T04:19:09.796Z,7.87
2018-12-05T04:21:39.604Z,9.30
2018-12-05T04:24:09.900Z,8.90
2018-12-05T04:26:40.090Z,7.73
2018-12-05T04:29:09.864Z,8.83
2018-12-05T04:31:39.673Z,6.87
2018-12-05T04:34:09.825Z,8.27
2018-12-05T04:36:39.612Z,7.33
2018-12-05T04:39:10.122Z,8.60
2018-12-05T04:41:39.994Z,11.60
2018-12-05T04:44:09.861Z,6.40
2018-12-05T04:46:39.630Z,6.97
2018-12-05T04:49:09.380Z,6.97
2018-12-05T04:51:39.289Z,8.40
2018-12-05T04:54:09.216Z,8.93
2018-12-05T04:56:39.032Z,8.30
2018-12-05T04:59:09.128Z,6.30
2018-12-05T05:01:39.108Z,6.13
2018-12-05T05:04:08.972Z,8.30
2018-12-05T05:06:41.834Z,7.60
2018-12-05T05:09:10.901Z,8.33
2018-12-05T05:11:40.518Z,7.43
2018-12-05T05:14:10.365Z,10.33
2018-12-05T05:16:40.192Z,9.13
2018-12-05T05:19:10.100Z,8.20
2018-12-05T05:21:40.013Z,7.57
2018-12-05T05:24:09.675Z,6.83
2018-12-05T05:26:39.913Z,6.20
2018-12-05T05:29:10.763Z,5.20
2018-12-05T05:31:41.476Z,5.17
2018-12-05T05:34:12.337Z,5.13
2018-12-05T05:36:42.264Z,5.77
2018-12-05T05:39:12.158Z,6.33
2018-12-05T05:41:42.064Z,6.10
2018-12-05T05:44:11.680Z,3.97
2018-12-05T05:46:41.404Z,4.93
2018-12-05T05:49:11.216Z,4.60
2018-12-05T05:51:40.886Z,4.50
2018-12-05T05:54:10.748Z,7.40
2018-12-05T05:56:40.805Z,6.90
2018-12-05T05:59:10.733Z,7.10
2018-12-05T06:01:40.508Z,7.17
2018-12-05T06:04:26.567Z,8.30
2018-12-05T06:07:09.896Z,6.53
2018-12-05T06:09:39.755Z,8.37
2018-12-05T06:12:09.495Z,7.70
2018-12-05T06:14:40.240Z,8.03
2018-12-05T06:19:58.905Z,9.73
2018-12-05T06:22:28.504Z,6.97
2018-12-05T06:24:58.469Z,8.30
2018-12-05T06:27:28.288Z,6.33
2018-12-05T06:29:58.192Z,7.50
2018-12-05T06:32:27.903Z,6.17
2018-12-05T06:34:57.692Z,7.93
2018-12-05T06:37:27.477Z,5.63
2018-12-05T06:39:57.152Z,5.83
2018-12-05T06:42:27.208Z,5.80
2018-12-05T06:44:57.069Z,4.73
2018-12-05T06:47:27.949Z,4.20
2018-12-05T06:49:57.917Z,4.63
2018-12-05T06:52:27.732Z,4.97
2018-12-05T06:54:57.598Z,4.03
2018-12-05T06:57:27.462Z,7.17
2018-12-05T06:59:57.284Z,8.63
2018-12-05T07:02:28.679Z,11.03
2018-12-05T07:04:58.532Z,9.20
2018-12-05T07:07:28.301Z,9.20
2018-12-05T07:09:58.261Z,9.60
2018-12-05T07:12:28.000Z,9.60
2018-12-05T07:14:57.885Z,8.47
2018-12-05T07:17:27.791Z,9.17
2018-12-05T07:19:57.844Z,7.53
2018-12-05T07:22:27.588Z,9.03
2018-12-05T07:24:57.423Z,8.70
2018-12-05T07:27:27.324Z,8.93
2018-12-05T07:29:57.008Z,8.20
2018-12-05T07:32:26.879Z,9.17
2018-12-05T07:34:58.176Z,7.60
2018-12-05T07:37:27.988Z,8.87
2018-12-05T07:39:57.840Z,7.70
2018-12-05T07:42:27.719Z,13.87
2018-12-05T07:44:58.477Z,7.00
2018-12-05T07:47:28.064Z,7.20
2018-12-05T07:49:58.040Z,9.40
2018-12-05T07:52:28.908Z,8.13
2018-12-05T07:54:58.672Z,10.13
2018-12-05T07:57:28.597Z,8.57
2018-12-05T07:59:58.352Z,7.30
2018-12-05T08:02:28.402Z,7.63
2018-12-05T08:04:59.684Z,8.90
2018-12-05T08:07:29.473Z,8.20
2018-12-05T08:09:59.506Z,8.10
2018-12-05T08:12:29.784Z,7.83
2018-12-05T08:14:59.380Z,7.43
2018-12-05T08:17:30.161Z,8.47
2018-12-05T08:20:00.016Z,8.17
2018-12-05T08:22:29.820Z,9.00
2018-12-05T08:24:59.687Z,9.60
2018-12-05T08:27:29.360Z,19.50
2018-12-05T08:30:00.179Z,8.80
2018-12-05T08:32:30.053Z,10.20
2018-12-05T08:34:59.876Z,8.83
2018-12-05T08:37:30.052Z,7.43
2018-12-05T08:39:59.860Z,7.97
2018-12-05T08:42:29.884Z,13.60
2018-12-05T08:45:00.640Z,32.10
2018-12-05T08:47:33.778Z,27.40
2018-12-05T08:50:03.277Z,29.90
2018-12-05T08:52:33.139Z,16.60
2018-12-05T08:55:04.070Z,21.80
2018-12-05T08:57:33.866Z,15.00
2018-12-05T09:00:04.772Z,15.73
2018-12-05T09:02:36.074Z,12.13
2018-12-05T09:05:09.705Z,13.30
2018-12-05T09:07:39.762Z,16.37
2018-12-05T09:10:09.925Z,17.47
2018-12-05T09:12:39.849Z,15.90
2018-12-05T09:15:09.717Z,11.63
2018-12-05T09:17:39.891Z,14.07
2018-12-05T09:20:10.177Z,13.13
2018-12-05T09:22:41.465Z,12.73
2018-12-05T09:25:11.750Z,12.93
2018-12-05T09:27:41.548Z,13.40
2018-12-05T09:30:11.500Z,11.87
2018-12-05T09:32:41.645Z,13.20
2018-12-05T09:35:12.766Z,8.17
2018-12-05T09:37:42.681Z,8.90
2018-12-05T09:40:12.696Z,11.07
2018-12-05T09:42:42.601Z,6.67
2018-12-05T09:45:14.293Z,8.90
2018-12-05T09:47:45.264Z,7.20
2018-12-05T09:50:15.944Z,6.03
2018-12-05T09:52:45.956Z,6.10
2018-12-05T09:55:16.029Z,7.90
2018-12-05T09:57:45.841Z,6.60
2018-12-05T10:00:15.611Z,6.87
2018-12-05T10:02:45.545Z,7.20
2018-12-05T10:05:15.280Z,6.63
2018-12-05T10:07:45.240Z,4.87
2018-12-05T10:10:15.140Z,5.17
2018-12-05T10:12:45.068Z,5.37
2018-12-05T10:15:15.137Z,5.67
2018-12-05T10:17:45.001Z,4.73
2018-12-05T10:20:14.669Z,5.73
2018-12-05T10:22:45.800Z,4.70
2018-12-05T10:25:15.964Z,4.40
2018-12-05T10:27:46.664Z,4.83
2018-12-05T10:30:16.791Z,5.60
2018-12-05T10:32:47.652Z,4.47
2018-12-05T10:35:17.494Z,5.50
2018-12-05T10:37:47.677Z,4.07
2018-12-05T10:40:17.576Z,4.90
2018-12-05T10:42:47.530Z,4.83
2018-12-05T10:45:18.525Z,4.70
2018-12-05T10:47:48.322Z,5.10
2018-12-05T10:50:18.653Z,4.23
2018-12-05T10:52:48.412Z,3.93
2018-12-05T10:55:18.457Z,4.50
2018-12-05T10:57:49.381Z,4.63
2018-12-05T11:00:25.410Z,4.47
2018-12-05T11:03:01.744Z,4.17
2018-12-05T11:05:36.644Z,4.33
2018-12-05T11:08:11.665Z,6.10
2018-12-05T11:10:46.628Z,3.60
2018-12-05T11:13:21.579Z,3.07
2018-12-05T11:15:56.417Z,4.20
2018-12-05T11:18:32.825Z,3.40
2018-12-05T11:21:08.000Z,8.40
2018-12-05T11:23:43.108Z,4.80
2018-12-05T11:26:18.537Z,6.70
2018-12-05T11:28:48.931Z,3.73
2018-12-05T11:31:18.728Z,5.00
2018-12-05T11:33:48.636Z,4.63
2018-12-05T11:36:18.521Z,4.10
2018-12-05T11:38:48.632Z,6.90
2018-12-05T11:41:19.828Z,4.97
2018-12-05T11:43:49.890Z,6.83
2018-12-05T11:46:20.132Z,6.13
2018-12-05T11:48:49.993Z,7.13
2018-12-05T11:51:19.843Z,6.07
2018-12-05T11:53:49.784Z,5.07
2018-12-05T11:56:19.532Z,4.10
2018-12-05T11:58:49.417Z,5.43
2018-12-05T12:01:19.392Z,4.80
2018-12-05T12:03:49.138Z,5.60
2018-12-05T12:06:21.064Z,8.00
2018-12-05T12:08:51.028Z,5.57
2018-12-05T12:11:21.172Z,6.57
2018-12-05T12:13:51.195Z,5.27
2018-12-05T12:16:20.984Z,4.07
2018-12-05T12:18:50.854Z,3.80
2018-12-05T12:21:20.671Z,4.90
2018-12-05T12:23:50.521Z,6.40
2018-12-05T12:26:20.301Z,8.50
2018-12-05T12:28:50.298Z,9.67
2018-12-05T12:31:20.069Z,9.00
2018-12-05T12:33:51.181Z,5.17
2018-12-05T12:36:21.985Z,6.07
2018-12-05T12:38:51.959Z,6.23
2018-12-05T12:41:22.797Z,6.23
2018-12-05T12:43:52.824Z,5.10
2018-12-05T12:46:22.649Z,6.20
2018-12-05T12:48:52.547Z,6.80
2018-12-05T12:51:23.645Z,6.10
2018-12-05T12:53:53.847Z,5.13
2018-12-05T12:56:23.585Z,8.00
2018-12-05T12:58:53.676Z,4.97
2018-12-05T13:01:23.581Z,5.00
2018-12-05T13:03:53.552Z,5.37
2018-12-05T13:06:23.401Z,4.70
2018-12-05T13:08:53.408Z,6.13
2018-12-05T13:11:23.102Z,4.57
2018-12-05T13:13:53.132Z,9.30
2018-12-05T13:16:23.352Z,7.07
2018-12-05T13:18:53.049Z,7.37
2018-12-05T13:21:23.015Z,5.13
2018-12-05T13:23:52.830Z,5.87
2018-12-05T13:26:22.736Z,5.93
2018-12-05T13:28:52.678Z,5.70
2018-12-05T13:31:22.549Z,6.50
2018-12-05T13:33:52.332Z,6.80
2018-12-05T13:36:22.186Z,5.77
2018-12-05T13:38:53.744Z,6.50
2018-12-05T13:41:23.495Z,5.20
2018-12-05T13:43:53.161Z,5.33
2018-12-05T13:46:29.732Z,4.83
2018-12-05T13:48:54.888Z,5.87
2018-12-05T13:51:24.592Z,7.03
2018-12-05T13:53:54.301Z,5.20
2018-12-05T13:56:24.082Z,4.20
2018-12-05T13:58:54.085Z,5.20
2018-12-05T14:01:23.961Z,5.37
2018-12-05T14:03:53.896Z,8.50
2018-12-05T14:06:23.856Z,3.93
2018-12-05T14:08:54.528Z,4.60
2018-12-05T14:11:25.430Z,5.40
2018-12-05T14:13:55.161Z,4.50
2018-12-05T14:16:25.957Z,4.67
2018-12-05T14:18:55.609Z,6.07
2018-12-05T14:21:26.472Z,6.37
2018-12-05T14:23:56.252Z,8.13
2018-12-05T14:26:26.017Z,5.80
2018-12-05T14:28:56.006Z,5.40
2018-12-05T14:31:25.637Z,4.50
2018-12-05T14:33:55.633Z,4.77
2018-12-05T14:36:25.454Z,5.33
2018-12-05T14:38:55.332Z,6.83
2018-12-05T14:41:25.184Z,6.03
2018-12-05T14:43:55.109Z,6.20
2018-12-05T14:46:24.976Z,5.50
2018-12-05T14:48:54.736Z,5.67
2018-12-05T14:51:24.652Z,5.17
2018-12-05T14:53:54.408Z,4.37
2018-12-05T14:56:24.176Z,4.33
2018-12-05T14:58:54.288Z,5.20
2018-12-05T15:01:24.160Z,7.60
2018-12-05T15:03:54.253Z,5.50
2018-12-05T15:06:24.138Z,6.93
2018-12-05T15:08:54.048Z,9.60
2018-12-05T15:11:23.948Z,6.07
2018-12-05T15:13:54.260Z,6.87
2018-12-05T15:16:23.952Z,9.27
2018-12-05T15:18:54.088Z,7.80
2018-12-05T15:21:23.828Z,9.53
2018-12-05T15:23:53.697Z,11.73
2018-12-05T15:26:24.655Z,11.87
2018-12-05T15:28:54.456Z,16.67
2018-12-05T15:31:24.520Z,12.07
2018-12-05T15:33:54.331Z,13.70
2018-12-05T15:36:24.185Z,14.00
2018-12-05T15:38:54.032Z,12.50
2018-12-05T15:41:24.074Z,12.40
2018-12-05T15:43:53.985Z,14.87
2018-12-05T15:46:23.896Z,16.23
2018-12-05T15:48:53.810Z,13.63
2018-12-05T15:51:23.775Z,14.37
2018-12-05T15:53:53.622Z,13.57
2018-12-05T15:56:23.644Z,15.33
2018-12-05T15:58:53.324Z,14.90
2018-12-05T16:01:23.277Z,17.20
2018-12-05T16:03:53.109Z,14.93
2018-12-05T16:06:22.957Z,16.03
2018-12-05T16:08:53.928Z,18.90
2018-12-05T16:11:23.844Z,15.30
2018-12-05T16:13:53.525Z,19.77
2018-12-05T16:16:23.268Z,19.40
2018-12-05T16:18:53.372Z,20.53
2018-12-05T16:21:23.217Z,16.57
2018-12-05T16:23:53.029Z,14.00
2018-12-05T16:26:22.884Z,12.10
2018-12-05T16:28:52.602Z,21.23
2018-12-05T16:31:22.406Z,16.90
2018-12-05T16:33:52.273Z,13.43
2018-12-05T16:36:22.045Z,11.60
2018-12-05T16:38:51.932Z,11.80
2018-12-05T16:41:22.682Z,14.97
2018-12-05T16:43:52.409Z,14.73
2018-12-05T16:46:22.401Z,12.40
2018-12-05T16:48:52.125Z,11.60
2018-12-05T16:51:22.816Z,13.43
2018-12-05T16:53:52.521Z,11.10
2018-12-05T16:56:22.376Z,12.47
2018-12-05T16:58:52.152Z,14.43
2018-12-05T17:01:22.045Z,13.40
2018-12-05T17:04:00.551Z,18.93
2018-12-05T17:06:30.466Z,14.27
2018-12-05T17:09:08.435Z,11.77
2018-12-05T17:11:38.397Z,17.70
2018-12-05T17:14:27.039Z,26.47
2018-12-05T17:17:01.433Z,23.33
2018-12-05T17:19:31.700Z,23.17
2018-12-05T17:22:01.407Z,20.53
2018-12-05T17:24:31.733Z,22.07
2018-12-05T17:27:01.811Z,19.13
2018-12-05T17:29:31.660Z,22.70
2018-12-05T17:32:01.481Z,19.10
2018-12-05T17:34:31.397Z,19.87
2018-12-05T17:37:01.316Z,19.63
2018-12-05T17:39:31.216Z,15.80
2018-12-05T17:42:00.988Z,18.63
2018-12-05T17:44:31.901Z,20.53
2018-12-05T17:47:01.742Z,18.97
2018-12-05T17:49:31.553Z,20.33
2018-12-05T17:52:01.406Z,17.20
2018-12-05T17:54:31.177Z,24.90
2018-12-05T17:57:13.713Z,13.50
2018-12-05T17:59:53.321Z,17.00
2018-12-05T18:02:23.193Z,17.30
2018-12-05T18:04:52.946Z,19.27
2018-12-05T18:07:23.637Z,24.33
2018-12-05T18:09:55.685Z,24.03
2018-12-05T18:12:25.471Z,18.93
2018-12-05T18:14:55.321Z,22.37
2018-12-05T18:17:25.134Z,21.27
2018-12-05T18:19:54.900Z,21.43
2018-12-05T18:22:24.749Z,25.00
2018-12-05T18:25:03.588Z,19.03
2018-12-05T18:27:33.393Z,20.13
2018-12-05T18:30:04.560Z,20.53
2018-12-05T18:32:36.474Z,23.87
2018-12-05T18:35:06.705Z,23.17
2018-12-05T18:37:36.629Z,23.67
2018-12-05T18:40:07.034Z,18.37
2018-12-05T18:42:36.936Z,19.73
2018-12-05T18:45:08.042Z,17.07
2018-12-05T18:47:37.784Z,19.30
2018-12-05T18:50:08.757Z,19.83
2018-12-05T18:52:38.848Z,20.30
2018-12-05T18:55:08.886Z,20.73
2018-12-05T18:57:40.775Z,22.37
2018-12-05T19:00:11.852Z,18.57
2018-12-05T19:02:42.016Z,20.97
2018-12-05T19:05:12.828Z,22.00
2018-12-05T19:07:42.680Z,23.50
2018-12-05T19:10:12.505Z,22.43
2018-12-05T19:12:42.404Z,17.27
2018-12-05T19:15:12.225Z,22.70
2018-12-05T19:17:42.110Z,17.33
2018-12-05T19:20:11.996Z,15.00
2018-12-05T19:22:41.768Z,15.73
2018-12-05T19:25:11.668Z,12.07
2018-12-05T19:27:41.545Z,16.13
2018-12-05T19:32:59.509Z,15.70
2018-12-05T19:35:29.453Z,16.40
2018-12-05T19:37:59.682Z,13.40
2018-12-05T19:40:29.764Z,17.40
2018-12-05T19:42:59.661Z,16.10
2018-12-05T19:48:17.561Z,13.37
2018-12-05T19:50:47.353Z,16.10
2018-12-05T19:53:18.197Z,17.77
2018-12-05T19:55:48.168Z,15.00
2018-12-05T19:58:18.417Z,16.47
2018-12-05T20:01:03.069Z,18.17
2018-12-05T20:03:33.905Z,14.77
2018-12-05T20:06:03.941Z,17.57
2018-12-05T20:08:34.031Z,17.77
2018-12-05T20:11:03.787Z,16.10
2018-12-05T20:13:50.683Z,16.03
2018-12-05T20:16:24.108Z,12.87
2018-12-05T20:18:54.924Z,15.63
2018-12-05T20:21:25.788Z,18.43
2018-12-05T20:23:55.689Z,18.20
2018-12-05T20:26:25.448Z,17.77
2018-12-05T20:28:55.416Z,19.97
2018-12-05T20:34:14.336Z,13.30
2018-12-05T20:36:44.589Z,16.80
2018-12-05T20:39:14.396Z,16.57
2018-12-05T20:41:44.412Z,14.57
2018-12-05T20:44:14.870Z,15.10
2018-12-05T20:47:16.577Z,13.43
2018-12-05T20:49:46.342Z,14.87
2018-12-05T20:52:17.077Z,14.53
2018-12-05T20:54:47.092Z,16.80
2018-12-05T20:57:16.864Z,18.90
2018-12-05T20:59:46.816Z,17.20
2018-12-05T21:02:16.720Z,20.57
2018-12-05T21:04:46.603Z,14.83
2018-12-05T21:07:16.492Z,15.07
2018-12-05T21:09:46.372Z,18.30
2018-12-05T21:12:16.167Z,18.13
2018-12-05T21:14:46.186Z,16.70
2018-12-05T21:17:16.268Z,14.23
2018-12-05T21:19:46.084Z,13.70
2018-12-05T21:22:15.745Z,14.57
2018-12-05T21:24:45.834Z,16.13
2018-12-05T21:27:15.533Z,14.67
2018-12-05T21:29:45.763Z,16.33
2018-12-05T21:32:15.728Z,13.27
2018-12-05T21:34:45.673Z,12.63
2018-12-05T21:37:15.522Z,14.83
2018-12-05T21:39:45.345Z,15.27
2018-12-05T21:42:15.659Z,16.17
2018-12-05T21:44:45.420Z,15.13
2018-12-05T21:47:15.400Z,17.43
2018-12-05T21:49:45.168Z,14.63
2018-12-05T21:52:15.024Z,14.27
2018-12-05T21:54:45.084Z,16.20
2018-12-05T21:57:14.957Z,12.50
2018-12-05T21:59:44.876Z,11.67
2018-12-05T22:02:14.788Z,13.07
2018-12-05T22:04:44.552Z,13.00
2018-12-05T22:07:14.592Z,11.30
2018-12-05T22:09:45.404Z,14.40
2018-12-05T22:12:16.337Z,12.73
2018-12-05T22:14:46.111Z,11.43
2018-12-05T22:17:15.961Z,12.77
2018-12-05T22:19:45.683Z,14.43
2018-12-05T22:22:15.385Z,11.90
2018-12-05T22:24:45.050Z,12.60
2018-12-05T22:27:15.061Z,14.00
2018-12-05T22:29:44.833Z,14.47
2018-12-05T22:32:14.693Z,11.50
2018-12-05T22:34:44.360Z,14.43
2018-12-05T22:37:14.289Z,13.70
2018-12-05T22:39:44.085Z,15.03
2018-12-05T22:42:14.038Z,13.43
2018-12-05T22:44:43.851Z,12.97
2018-12-05T22:47:13.865Z,12.30
2018-12-05T22:49:43.663Z,12.03
2018-12-05T22:52:13.596Z,13.63
2018-12-05T22:54:43.589Z,12.53
2018-12-05T22:57:14.568Z,12.83
2018-12-05T22:59:45.120Z,11.90
2018-12-05T23:02:14.992Z,12.60
2018-12-05T23:04:45.065Z,13.53
2018-12-05T23:07:14.923Z,15.27
2018-12-05T23:09:44.677Z,13.97
2018-12-05T23:12:14.404Z,14.83
2018-12-05T23:14:44.245Z,15.73
2018-12-05T23:17:13.972Z,11.47
2018-12-05T23:19:43.881Z,13.40
2018-12-05T23:22:13.597Z,13.83
2018-12-05T23:24:44.225Z,13.30
2018-12-05T23:27:14.037Z,14.60
2018-12-05T23:29:43.836Z,14.53
2018-12-05T23:32:13.716Z,14.00
2018-12-05T23:34:43.425Z,12.70
2018-12-05T23:37:13.092Z,11.63
2018-12-05T23:39:42.992Z,11.53
2018-12-05T23:42:12.927Z,15.33
2018-12-05T23:44:42.768Z,10.50
2018-12-05T23:47:12.536Z,12.13
2018-12-05T23:49:42.345Z,11.20
2018-12-05T23:52:12.616Z,12.20
2018-12-05T23:54:42.434Z,12.60
2018-12-05T23:57:12.088Z,14.70
2018-12-05T23:59:42.940Z,11.63
